createdAt,value
2022-10-21T00:07:33.323Z,24.3496
2022-10-21T00:22:35.731Z,23.9435
2022-10-21T00:37:38.018Z,26.2154
2022-10-21T00:52:40.492Z,26.9824
2022-10-21T01:07:42.989Z,27.3761
2022-10-21T01:22:45.133Z,28.517
2022-10-21T01:37:47.100Z,28.4619
2022-10-21T01:52:49.032Z,28.5139
2022-10-21T02:07:50.970Z,29.0048
2022-10-21T02:22:52.906Z,28.1827
2022-10-21T02:37:54.874Z,28.1109
2022-10-21T02:52:56.902Z,28.4006
2022-10-21T03:07:58.843Z,28.2768
2022-10-21T03:23:01.459Z,28.3387
2022-10-21T03:38:03.552Z,28.6216
2022-10-21T03:53:13.882Z,27.7376
2022-10-21T04:08:26.208Z,28.9107
2022-10-21T04:23:28.221Z,28.9076
2022-10-21T04:38:30.199Z,29.7328
2022-10-21T04:53:32.274Z,28.5764
2022-10-21T05:08:34.360Z,26.5156
2022-10-21T05:23:36.475Z,28.3616
2022-10-21T05:38:38.365Z,28.9107
2022-10-21T05:53:40.312Z,28.5145
2022-10-21T06:08:42.358Z,28.6835
2022-10-21T06:23:44.460Z,29.0995
2022-10-21T06:38:46.422Z,27.9685
2022-10-21T06:53:48.291Z,28.5145
2022-10-21T07:08:57.806Z,26.1206
2022-10-21T07:16:02.033Z,26.9489
2022-10-21T07:31:04.125Z,29.2153
2022-10-21T07:46:07.032Z,27.6553
2022-10-21T08:01:09.137Z,27.7525
2022-10-21T08:16:10.997Z,28.1784
2022-10-21T08:31:12.815Z,26.3256
2022-10-21T08:46:14.627Z,25.6075
2022-10-21T09:01:16.432Z,24.3236
2022-10-21T09:16:18.249Z,24.2029
2022-10-21T09:31:20.120Z,24.3849
2022-10-21T09:46:21.987Z,24.4072
2022-10-21T10:01:23.817Z,23.9652
2022-10-21T10:16:25.717Z,23.4811
2022-10-21T10:31:27.600Z,23.6433
2022-10-21T10:46:29.580Z,24.0364
2022-10-21T11:01:31.536Z,24.0952
2022-10-21T11:16:40.756Z,23.3703
2022-10-21T11:32:06.706Z,24.5756
2022-10-21T11:47:12.452Z,24.4004
2022-10-21T12:02:14.425Z,24.2803
2022-10-21T12:17:16.318Z,24.4004
2022-10-21T12:32:18.160Z,23.8643
2022-10-21T12:47:20.018Z,24.4456
2022-10-21T13:02:21.892Z,24.4487
2022-10-21T13:17:23.817Z,24.2834
2022-10-21T13:32:25.678Z,24.1534
2022-10-21T13:47:27.919Z,24.3515
2022-10-21T14:02:30.320Z,24.1534
2022-10-21T14:17:32.151Z,24.6084
2022-10-21T14:32:33.976Z,24.5533
2022-10-21T14:47:35.828Z,23.4681
2022-10-21T15:02:38.250Z,24.8653
2022-10-21T15:17:40.684Z,24.167
2022-10-21T15:32:42.638Z,25.3531
2022-10-21T15:47:44.478Z,24.557
2022-10-21T16:02:46.288Z,23.3542
2022-10-21T16:17:48.098Z,25.5803
2022-10-21T16:32:49.934Z,25.9449
2022-10-21T16:47:51.836Z,25.9802
2022-10-21T17:02:53.663Z,26.7701
2022-10-21T17:17:55.492Z,27.1477
2022-10-21T17:32:57.400Z,25.7728
2022-10-21T17:47:59.236Z,28.0639
2022-10-21T18:03:01.202Z,27.9667
2022-10-21T18:18:03.010Z,27.2356
2022-10-21T18:33:04.870Z,28.4607
2022-10-21T18:48:06.720Z,27.1508
2022-10-21T19:03:08.543Z,28.0088
2022-10-21T19:18:10.421Z,27.9636
2022-10-21T19:33:12.277Z,27.3396
2022-10-21T19:48:14.127Z,28.2886
2022-10-21T20:03:15.979Z,27.6256
2022-10-21T20:18:17.924Z,28.0806
2022-10-21T20:33:19.750Z,26.7738
2022-10-21T20:48:21.612Z,27.6027
2022-10-21T21:03:23.494Z,27.8924
2022-10-21T21:18:25.373Z,28.0775
2022-10-21T21:33:27.197Z,28.4477
2022-10-21T21:48:29.045Z,27.5866
2022-10-21T22:03:30.863Z,27.7426
2022-10-21T22:18:32.764Z,26.8425
2022-10-21T22:33:34.709Z,27.6776
2022-10-21T22:48:36.597Z,27.7525
2022-10-21T23:03:38.537Z,28.2205
2022-10-21T23:18:40.406Z,27.2455
2022-10-21T23:33:42.211Z,28.2465
2022-10-21T23:48:44.000Z,23.3387
